sensor_id;sensor_type;location;lat;lon;timestamp;pressure;altitude;pressure_sealevel;temperature;humidity
59194;BME280;44967;48.598;15.650;2023-04-05T00:01:41;98840.00;;;-0.62;54.87
59194;BME280;44967;48.598;15.650;2023-04-05T00:04:07;98835.72;;;-0.60;54.92
59194;BME280;44967;48.598;15.650;2023-04-05T00:06:33;98832.09;;;-0.66;54.38
59194;BME280;44967;48.598;15.650;2023-04-05T00:09:01;98835.91;;;-0.89;56.13
59194;BME280;44967;48.598;15.650;2023-04-05T00:11:32;98828.06;;;-0.92;56.14
59194;BME280;44967;48.598;15.650;2023-04-05T00:13:59;98820.28;;;-0.92;56.23
59194;BME280;44967;48.598;15.650;2023-04-05T00:16:26;98817.75;;;-0.89;56.13
59194;BME280;44967;48.598;15.650;2023-04-05T00:18:52;98825.34;;;-0.97;56.43
59194;BME280;44967;48.598;15.650;2023-04-05T00:21:18;98815.16;;;-0.89;56.17
59194;BME280;44967;48.598;15.650;2023-04-05T00:23:56;98814.78;;;-1.05;56.94
59194;BME280;44967;48.598;15.650;2023-04-05T00:26:23;98820.03;;;-1.02;56.64
59194;BME280;44967;48.598;15.650;2023-04-05T00:28:50;98810.78;;;-0.90;56.28
59194;BME280;44967;48.598;15.650;2023-04-05T00:31:16;98823.63;;;-0.97;56.16
59194;BME280;44967;48.598;15.650;2023-04-05T00:33:42;98815.03;;;-0.94;55.92
59194;BME280;44967;48.598;15.650;2023-04-05T00:36:12;98825.28;;;-0.99;56.40
59194;BME280;44967;48.598;15.650;2023-04-05T00:38:38;98813.25;;;-0.97;55.76
59194;BME280;44967;48.598;15.650;2023-04-05T00:41:04;98820.34;;;-1.25;57.32
59194;BME280;44967;48.598;15.650;2023-04-05T00:43:30;98817.81;;;-1.22;57.31
59194;BME280;44967;48.598;15.650;2023-04-05T00:45:56;98809.38;;;-1.14;56.85
59194;BME280;44967;48.598;15.650;2023-04-05T00:48:22;98824.75;;;-1.23;57.88
59194;BME280;44967;48.598;15.650;2023-04-05T00:50:49;98821.22;;;-1.25;56.98
59194;BME280;44967;48.598;15.650;2023-04-05T00:53:17;98823.88;;;-1.23;57.57
59194;BME280;44967;48.598;15.650;2023-04-05T00:55:45;98824.56;;;-1.29;57.63
59194;BME280;44967;48.598;15.650;2023-04-05T00:58:12;98826.59;;;-1.52;58.86
59194;BME280;44967;48.598;15.650;2023-04-05T01:00:38;98822.38;;;-1.48;58.18
59194;BME280;44967;48.598;15.650;2023-04-05T01:03:06;98819.72;;;-1.51;58.94
59194;BME280;44967;48.598;15.650;2023-04-05T01:05:54;98812.88;;;-1.48;58.21
59194;BME280;44967;48.598;15.650;2023-04-05T01:08:39;98822.63;;;-1.39;58.52
59194;BME280;44967;48.598;15.650;2023-04-05T01:11:11;98817.50;;;-1.36;57.86
59194;BME280;44967;48.598;15.650;2023-04-05T01:13:37;98811.19;;;-1.47;57.24
59194;BME280;44967;48.598;15.650;2023-04-05T01:16:03;98814.72;;;-1.44;57.78
59194;BME280;44967;48.598;15.650;2023-04-05T01:18:29;98815.34;;;-1.52;57.86
59194;BME280;44967;48.598;15.650;2023-04-05T01:31:55;98805.22;;;-1.43;57.32
59194;BME280;44967;48.598;15.650;2023-04-05T01:34:35;98814.41;;;-1.56;58.04
59194;BME280;44967;48.598;15.650;2023-04-05T01:37:05;98810.88;;;-1.59;57.92
59194;BME280;44967;48.598;15.650;2023-04-05T01:39:34;98804.19;;;-1.50;57.84
59194;BME280;44967;48.598;15.650;2023-04-05T01:42:01;98805.63;;;-1.62;58.28
59194;BME280;44967;48.598;15.650;2023-04-05T01:44:28;98809.22;;;-1.56;58.32
59194;BME280;44967;48.598;15.650;2023-04-05T01:46:54;98816.50;;;-1.75;58.43
59194;BME280;44967;48.598;15.650;2023-04-05T01:49:22;98804.56;;;-1.69;57.66
59194;BME280;44967;48.598;15.650;2023-04-05T01:51:47;98806.19;;;-1.72;58.15
59194;BME280;44967;48.598;15.650;2023-04-05T01:54:13;98805.75;;;-1.56;57.73
59194;BME280;44967;48.598;15.650;2023-04-05T01:56:39;98797.91;;;-1.59;58.60
59194;BME280;44967;48.598;15.650;2023-04-05T01:59:05;98802.03;;;-1.66;57.77
59194;BME280;44967;48.598;15.650;2023-04-05T02:01:30;98803.59;;;-1.72;59.18
59194;BME280;44967;48.598;15.650;2023-04-05T02:03:56;98809.22;;;-1.88;59.49
59194;BME280;44967;48.598;15.650;2023-04-05T02:06:22;98809.00;;;-1.98;60.12
59194;BME280;44967;48.598;15.650;2023-04-05T02:08:47;98806.84;;;-1.81;58.94
59194;BME280;44967;48.598;15.650;2023-04-05T02:11:14;98803.97;;;-1.92;59.40
59194;BME280;44967;48.598;15.650;2023-04-05T02:13:39;98813.38;;;-1.95;60.12
59194;BME280;44967;48.598;15.650;2023-04-05T02:16:05;98809.84;;;-1.97;60.08
59194;BME280;44967;48.598;15.650;2023-04-05T02:18:31;98805.72;;;-1.91;60.60
59194;BME280;44967;48.598;15.650;2023-04-05T02:21:14;98804.22;;;-1.82;59.99
59194;BME280;44967;48.598;15.650;2023-04-05T02:23:41;98806.00;;;-1.80;59.98
59194;BME280;44967;48.598;15.650;2023-04-05T02:26:07;98804.88;;;-2.21;61.34
59194;BME280;44967;48.598;15.650;2023-04-05T02:28:32;98802.50;;;-2.13;60.77
59194;BME280;44967;48.598;15.650;2023-04-05T02:30:58;98800.34;;;-2.29;61.52
59194;BME280;44967;48.598;15.650;2023-04-05T02:33:25;98805.59;;;-2.26;60.71
59194;BME280;44967;48.598;15.650;2023-04-05T02:35:52;98800.56;;;-2.22;60.66
59194;BME280;44967;48.598;15.650;2023-04-05T02:38:18;98800.59;;;-2.20;60.47
59194;BME280;44967;48.598;15.650;2023-04-05T02:40:48;98797.97;;;-2.22;60.80
59194;BME280;44967;48.598;15.650;2023-04-05T02:43:13;98798.31;;;-2.10;60.58
59194;BME280;44967;48.598;15.650;2023-04-05T02:45:39;98789.69;;;-2.09;60.19
59194;BME280;44967;48.598;15.650;2023-04-05T02:48:05;98789.28;;;-2.24;60.18
59194;BME280;44967;48.598;15.650;2023-04-05T02:50:30;98790.63;;;-2.37;60.52
59194;BME280;44967;48.598;15.650;2023-04-05T02:52:57;98795.44;;;-2.50;60.71
59194;BME280;44967;48.598;15.650;2023-04-05T02:55:22;98795.56;;;-2.46;60.63
59194;BME280;44967;48.598;15.650;2023-04-05T02:57:48;98793.97;;;-2.41;60.08
59194;BME280;44967;48.598;15.650;2023-04-05T03:00:15;98788.50;;;-2.51;61.27
59194;BME280;44967;48.598;15.650;2023-04-05T03:02:41;98784.56;;;-2.39;60.62
59194;BME280;44967;48.598;15.650;2023-04-05T03:05:07;98786.97;;;-2.45;60.90
59194;BME280;44967;48.598;15.650;2023-04-05T03:07:33;98790.06;;;-2.56;60.68
59194;BME280;44967;48.598;15.650;2023-04-05T03:09:59;98792.56;;;-2.61;61.11
59194;BME280;44967;48.598;15.650;2023-04-05T03:12:25;98782.38;;;-2.55;61.05
59194;BME280;44967;48.598;15.650;2023-04-05T03:14:53;98785.75;;;-2.57;60.47
59194;BME280;44967;48.598;15.650;2023-04-05T03:17:19;98787.38;;;-2.61;61.03
59194;BME280;44967;48.598;15.650;2023-04-05T03:19:45;98779.47;;;-2.65;60.49
59194;BME280;44967;48.598;15.650;2023-04-05T03:22:10;98781.13;;;-2.67;60.66
59194;BME280;44967;48.598;15.650;2023-04-05T03:24:36;98775.41;;;-2.57;60.50
59194;BME280;44967;48.598;15.650;2023-04-05T03:27:02;98778.03;;;-2.56;60.06
59194;BME280;44967;48.598;15.650;2023-04-05T03:29:30;98780.13;;;-2.72;60.12
59194;BME280;44967;48.598;15.650;2023-04-05T03:31:59;98774.47;;;-2.89;61.30
59194;BME280;44967;48.598;15.650;2023-04-05T03:34:24;98772.19;;;-3.07;61.83
59194;BME280;44967;48.598;15.650;2023-04-05T03:36:53;98776.53;;;-3.06;62.16
59194;BME280;44967;48.598;15.650;2023-04-05T03:39:19;98779.94;;;-3.07;62.98
59194;BME280;44967;48.598;15.650;2023-04-05T03:41:45;98782.13;;;-3.20;63.07
59194;BME280;44967;48.598;15.650;2023-04-05T03:44:11;98775.22;;;-3.20;64.58
59194;BME280;44967;48.598;15.650;2023-04-05T03:46:36;98768.75;;;-3.34;65.04
59194;BME280;44967;48.598;15.650;2023-04-05T03:49:02;98782.00;;;-3.23;66.04
59194;BME280;44967;48.598;15.650;2023-04-05T03:51:28;98779.88;;;-3.10;64.82
59194;BME280;44967;48.598;15.650;2023-04-05T03:53:55;98782.75;;;-2.99;64.46
59194;BME280;44967;48.598;15.650;2023-04-05T03:56:21;98780.19;;;-2.99;64.26
59194;BME280;44967;48.598;15.650;2023-04-05T03:58:46;98781.41;;;-3.15;64.95
59194;BME280;44967;48.598;15.650;2023-04-05T04:01:13;98779.88;;;-3.10;64.22
59194;BME280;44967;48.598;15.650;2023-04-05T04:03:39;98776.47;;;-3.09;64.13
59194;BME280;44967;48.598;15.650;2023-04-05T04:06:05;98774.13;;;-3.00;63.60
59194;BME280;44967;48.598;15.650;2023-04-05T04:08:31;98773.03;;;-3.08;63.03
59194;BME280;44967;48.598;15.650;2023-04-05T04:10:57;98778.47;;;-2.99;63.50
59194;BME280;44967;48.598;15.650;2023-04-05T04:13:23;98772.94;;;-3.11;62.97
59194;BME280;44967;48.598;15.650;2023-04-05T04:15:49;98771.06;;;-3.16;63.82
59194;BME280;44967;48.598;15.650;2023-04-05T04:18:15;98775.00;;;-3.27;64.71
59194;BME280;44967;48.598;15.650;2023-04-05T04:20:41;98778.66;;;-3.21;63.78
59194;BME280;44967;48.598;15.650;2023-04-05T04:23:07;98772.63;;;-3.20;64.25
59194;BME280;44967;48.598;15.650;2023-04-05T04:25:37;98772.13;;;-3.10;63.22
59194;BME280;44967;48.598;15.650;2023-04-05T04:28:05;98770.66;;;-3.00;63.75
59194;BME280;44967;48.598;15.650;2023-04-05T04:30:32;98771.47;;;-3.03;63.63
59194;BME280;44967;48.598;15.650;2023-04-05T04:33:01;98778.31;;;-3.05;63.88
59194;BME280;44967;48.598;15.650;2023-04-05T04:35:32;98767.34;;;-2.96;63.48
59194;BME280;44967;48.598;15.650;2023-04-05T04:38:00;98775.56;;;-3.09;63.27
59194;BME280;44967;48.598;15.650;2023-04-05T04:40:33;98766.00;;;-3.12;63.58
59194;BME280;44967;48.598;15.650;2023-04-05T04:43:13;98772.56;;;-3.23;63.63
59194;BME280;44967;48.598;15.650;2023-04-05T04:45:39;98766.47;;;-3.25;64.11
59194;BME280;44967;48.598;15.650;2023-04-05T04:48:06;98771.09;;;-3.15;64.35
59194;BME280;44967;48.598;15.650;2023-04-05T04:50:32;98769.63;;;-3.07;64.07
59194;BME280;44967;48.598;15.650;2023-04-05T04:52:59;98773.66;;;-3.15;63.77
59194;BME280;44967;48.598;15.650;2023-04-05T04:55:27;98771.16;;;-3.13;63.85
59194;BME280;44967;48.598;15.650;2023-04-05T04:57:53;98770.25;;;-3.14;64.24
59194;BME280;44967;48.598;15.650;2023-04-05T05:00:21;98775.81;;;-3.02;63.80
59194;BME280;44967;48.598;15.650;2023-04-05T05:02:49;98774.31;;;-3.22;63.94
59194;BME280;44967;48.598;15.650;2023-04-05T05:05:16;98769.69;;;-3.04;64.00
59194;BME280;44967;48.598;15.650;2023-04-05T05:07:42;98773.16;;;-3.03;63.79
59194;BME280;44967;48.598;15.650;2023-04-05T05:10:10;98774.25;;;-2.97;64.24
59194;BME280;44967;48.598;15.650;2023-04-05T05:12:37;98774.56;;;-2.86;64.06
59194;BME280;44967;48.598;15.650;2023-04-05T05:15:03;98777.28;;;-2.81;63.93
59194;BME280;44967;48.598;15.650;2023-04-05T05:17:29;98775.59;;;-2.79;64.63
59194;BME280;44967;48.598;15.650;2023-04-05T05:19:57;98779.28;;;-2.71;65.31
59194;BME280;44967;48.598;15.650;2023-04-05T05:22:25;98771.53;;;-2.71;65.54
59194;BME280;44967;48.598;15.650;2023-04-05T05:24:51;98771.88;;;-2.59;65.03
59194;BME280;44967;48.598;15.650;2023-04-05T05:27:17;98768.81;;;-2.46;64.02
59194;BME280;44967;48.598;15.650;2023-04-05T05:29:42;98774.59;;;-2.55;64.26
59194;BME280;44967;48.598;15.650;2023-04-05T05:32:08;98776.81;;;-2.37;63.60
59194;BME280;44967;48.598;15.650;2023-04-05T05:34:39;98777.22;;;-2.23;63.67
59194;BME280;44967;48.598;15.650;2023-04-05T05:37:07;98780.19;;;-2.41;64.06
59194;BME280;44967;48.598;15.650;2023-04-05T05:39:34;98778.03;;;-2.24;63.81
59194;BME280;44967;48.598;15.650;2023-04-05T05:42:01;98779.75;;;-2.25;63.89
59194;BME280;44967;48.598;15.650;2023-04-05T05:44:28;98784.28;;;-2.18;63.08
59194;BME280;44967;48.598;15.650;2023-04-05T05:46:54;98783.88;;;-2.02;62.57
59194;BME280;44967;48.598;15.650;2023-04-05T05:49:20;98790.09;;;-1.94;62.33
59194;BME280;44967;48.598;15.650;2023-04-05T05:51:46;98791.97;;;-1.88;62.24
59194;BME280;44967;48.598;15.650;2023-04-05T05:54:12;98787.72;;;-1.86;62.26
59194;BME280;44967;48.598;15.650;2023-04-05T05:56:37;98780.19;;;-1.77;62.13
59194;BME280;44967;48.598;15.650;2023-04-05T05:59:03;98781.41;;;-1.63;62.19
59194;BME280;44967;48.598;15.650;2023-04-05T06:01:28;98775.59;;;-1.53;61.33
59194;BME280;44967;48.598;15.650;2023-04-05T06:03:54;98780.97;;;-1.45;60.87
59194;BME280;44967;48.598;15.650;2023-04-05T06:06:20;98772.84;;;-1.60;61.18
59194;BME280;44967;48.598;15.650;2023-04-05T06:08:46;98781.75;;;-1.49;61.61
59194;BME280;44967;48.598;15.650;2023-04-05T06:11:19;98780.97;;;-1.47;63.78
59194;BME280;44967;48.598;15.650;2023-04-05T06:13:46;98782.81;;;-1.41;64.41
59194;BME280;44967;48.598;15.650;2023-04-05T06:16:11;98769.78;;;-1.44;63.78
59194;BME280;44967;48.598;15.650;2023-04-05T06:18:37;98773.75;;;-1.58;64.29
59194;BME280;44967;48.598;15.650;2023-04-05T06:21:02;98776.69;;;-1.79;63.33
59194;BME280;44967;48.598;15.650;2023-04-05T06:23:28;98777.47;;;-1.81;63.84
59194;BME280;44967;48.598;15.650;2023-04-05T06:25:54;98782.19;;;-1.67;63.41
59194;BME280;44967;48.598;15.650;2023-04-05T06:28:21;98776.94;;;-1.68;64.43
59194;BME280;44967;48.598;15.650;2023-04-05T06:30:46;98776.03;;;-1.70;64.38
59194;BME280;44967;48.598;15.650;2023-04-05T06:33:12;98777.31;;;-1.55;62.39
59194;BME280;44967;48.598;15.650;2023-04-05T06:35:38;98774.84;;;-1.49;61.93
59194;BME280;44967;48.598;15.650;2023-04-05T06:38:04;98771.06;;;-1.27;62.39
59194;BME280;44967;48.598;15.650;2023-04-05T06:40:30;98771.34;;;-1.15;62.66
59194;BME280;44967;48.598;15.650;2023-04-05T06:42:56;98776.06;;;-0.97;62.52
59194;BME280;44967;48.598;15.650;2023-04-05T06:45:21;98768.50;;;-0.86;61.04
59194;BME280;44967;48.598;15.650;2023-04-05T06:47:47;98768.06;;;-0.69;60.85
59194;BME280;44967;48.598;15.650;2023-04-05T06:50:13;98764.63;;;-0.66;60.43
59194;BME280;44967;48.598;15.650;2023-04-05T06:52:39;98765.81;;;-0.51;60.87
59194;BME280;44967;48.598;15.650;2023-04-05T06:55:05;98765.38;;;-0.30;60.00
59194;BME280;44967;48.598;15.650;2023-04-05T06:57:30;98763.22;;;-0.09;59.42
59194;BME280;44967;48.598;15.650;2023-04-05T06:59:56;98764.38;;;0.09;59.01
59194;BME280;44967;48.598;15.650;2023-04-05T07:02:22;98763.84;;;0.26;58.95
59194;BME280;44967;48.598;15.650;2023-04-05T07:04:48;98754.56;;;0.40;57.97
59194;BME280;44967;48.598;15.650;2023-04-05T07:07:14;98766.72;;;0.41;57.84
59194;BME280;44967;48.598;15.650;2023-04-05T07:09:39;98758.06;;;0.44;58.84
59194;BME280;44967;48.598;15.650;2023-04-05T07:12:07;98756.44;;;0.49;57.93
59194;BME280;44967;48.598;15.650;2023-04-05T07:14:35;98753.06;;;0.55;57.49
59194;BME280;44967;48.598;15.650;2023-04-05T07:17:05;98764.53;;;0.67;57.78
59194;BME280;44967;48.598;15.650;2023-04-05T07:19:32;98751.72;;;0.78;56.37
59194;BME280;44967;48.598;15.650;2023-04-05T07:21:58;98754.50;;;0.91;56.77
59194;BME280;44967;48.598;15.650;2023-04-05T07:24:24;98754.59;;;0.99;55.31
59194;BME280;44967;48.598;15.650;2023-04-05T07:26:50;98753.00;;;1.07;55.33
59194;BME280;44967;48.598;15.650;2023-04-05T07:29:18;98753.16;;;1.18;55.32
59194;BME280;44967;48.598;15.650;2023-04-05T07:31:44;98755.00;;;1.25;55.07
59194;BME280;44967;48.598;15.650;2023-04-05T07:34:10;98752.53;;;1.35;53.46
59194;BME280;44967;48.598;15.650;2023-04-05T07:36:35;98754.47;;;1.52;53.96
59194;BME280;44967;48.598;15.650;2023-04-05T07:39:01;98753.75;;;1.63;52.90
59194;BME280;44967;48.598;15.650;2023-04-05T07:41:28;98749.59;;;1.79;52.73
59194;BME280;44967;48.598;15.650;2023-04-05T07:43:57;98747.19;;;1.99;52.29
59194;BME280;44967;48.598;15.650;2023-04-05T07:46:23;98750.81;;;2.11;51.80
59194;BME280;44967;48.598;15.650;2023-04-05T07:48:49;98741.38;;;2.21;50.87
59194;BME280;44967;48.598;15.650;2023-04-05T07:51:14;98730.22;;;2.37;49.16
59194;BME280;44967;48.598;15.650;2023-04-05T07:53:40;98733.00;;;2.57;47.43
59194;BME280;44967;48.598;15.650;2023-04-05T07:56:08;98740.03;;;2.68;46.78
59194;BME280;44967;48.598;15.650;2023-04-05T07:58:35;98735.75;;;2.76;45.60
59194;BME280;44967;48.598;15.650;2023-04-05T08:01:05;98743.56;;;2.78;44.86
59194;BME280;44967;48.598;15.650;2023-04-05T08:03:31;98734.03;;;2.84;44.59
59194;BME280;44967;48.598;15.650;2023-04-05T08:06:08;98728.88;;;2.88;43.27
59194;BME280;44967;48.598;15.650;2023-04-05T08:08:35;98718.53;;;3.09;43.02
59194;BME280;44967;48.598;15.650;2023-04-05T08:11:04;98731.59;;;3.06;42.56
59194;BME280;44967;48.598;15.650;2023-04-05T08:13:30;98724.72;;;3.21;42.65
59194;BME280;44967;48.598;15.650;2023-04-05T08:15:58;98723.94;;;3.39;42.92
59194;BME280;44967;48.598;15.650;2023-04-05T08:18:25;98729.28;;;3.72;42.99
59194;BME280;44967;48.598;15.650;2023-04-05T08:20:53;98731.09;;;3.89;41.51
59194;BME280;44967;48.598;15.650;2023-04-05T08:23:19;98720.69;;;4.11;42.08
59194;BME280;44967;48.598;15.650;2023-04-05T08:25:45;98720.66;;;4.01;41.38
59194;BME280;44967;48.598;15.650;2023-04-05T08:28:11;98725.88;;;3.87;40.93
59194;BME280;44967;48.598;15.650;2023-04-05T08:30:38;98732.72;;;3.55;41.11
59194;BME280;44967;48.598;15.650;2023-04-05T08:33:04;98727.47;;;3.52;40.92
59194;BME280;44967;48.598;15.650;2023-04-05T08:35:30;98729.28;;;3.72;42.01
59194;BME280;44967;48.598;15.650;2023-04-05T08:37:56;98723.22;;;3.76;40.66
59194;BME280;44967;48.598;15.650;2023-04-05T08:40:29;98718.09;;;4.20;40.65
59194;BME280;44967;48.598;15.650;2023-04-05T08:43:07;98716.38;;;4.69;40.19
59194;BME280;44967;48.598;15.650;2023-04-05T08:45:36;98708.50;;;4.71;39.12
59194;BME280;44967;48.598;15.650;2023-04-05T08:48:08;98707.66;;;4.61;38.59
59194;BME280;44967;48.598;15.650;2023-04-05T08:50:34;98709.41;;;4.46;38.55
59194;BME280;44967;48.598;15.650;2023-04-05T08:52:59;98715.50;;;4.43;38.99
59194;BME280;44967;48.598;15.650;2023-04-05T08:55:25;98711.13;;;4.71;39.90
59194;BME280;44967;48.598;15.650;2023-04-05T08:57:52;98712.00;;;4.59;39.72
59194;BME280;44967;48.598;15.650;2023-04-05T09:00:23;98695.44;;;4.54;39.14
59194;BME280;44967;48.598;15.650;2023-04-05T09:02:55;98703.28;;;4.72;40.08
59194;BME280;44967;48.598;15.650;2023-04-05T09:05:22;98705.88;;;4.83;38.94
59194;BME280;44967;48.598;15.650;2023-04-05T09:07:50;98697.16;;;4.78;39.68
59194;BME280;44967;48.598;15.650;2023-04-05T09:10:18;98698.94;;;4.68;39.79
59194;BME280;44967;48.598;15.650;2023-04-05T09:12:44;98699.78;;;4.89;38.95
59194;BME280;44967;48.598;15.650;2023-04-05T09:15:10;98698.00;;;5.09;39.23
59194;BME280;44967;48.598;15.650;2023-04-05T09:17:38;98696.25;;;5.12;37.88
59194;BME280;44967;48.598;15.650;2023-04-05T09:20:06;98693.53;;;5.38;38.89
59194;BME280;44967;48.598;15.650;2023-04-05T09:22:42;98694.31;;;5.61;38.55
59194;BME280;44967;48.598;15.650;2023-04-05T09:25:08;98691.81;;;5.37;35.68
59194;BME280;44967;48.598;15.650;2023-04-05T09:27:34;98692.63;;;5.51;35.47
59194;BME280;44967;48.598;15.650;2023-04-05T09:29:59;98693.47;;;5.56;35.70
59194;BME280;44967;48.598;15.650;2023-04-05T09:32:25;98683.91;;;5.43;35.71
59194;BME280;44967;48.598;15.650;2023-04-05T09:34:53;98691.03;;;4.99;35.91
59194;BME280;44967;48.598;15.650;2023-04-05T09:37:20;98691.03;;;5.05;36.37
59194;BME280;44967;48.598;15.650;2023-04-05T09:39:47;98694.50;;;5.13;36.58
59194;BME280;44967;48.598;15.650;2023-04-05T09:42:18;98689.28;;;4.98;37.38
59194;BME280;44967;48.598;15.650;2023-04-05T09:44:57;98686.63;;;5.20;37.80
59194;BME280;44967;48.598;15.650;2023-04-05T09:47:28;98683.75;;;5.74;37.76
59194;BME280;44967;48.598;15.650;2023-04-05T09:50:00;98683.72;;;5.90;37.42
59194;BME280;44967;48.598;15.650;2023-04-05T09:52:27;98676.66;;;6.03;37.00
59194;BME280;44967;48.598;15.650;2023-04-05T09:54:55;98679.06;;;6.30;35.64
59194;BME280;44967;48.598;15.650;2023-04-05T09:57:22;98668.34;;;6.57;35.78
59194;BME280;44967;48.598;15.650;2023-04-05T09:59:50;98673.53;;;6.65;36.07
59194;BME280;44967;48.598;15.650;2023-04-05T10:02:17;98670.16;;;6.48;35.41
59194;BME280;44967;48.598;15.650;2023-04-05T10:04:44;98666.72;;;6.47;35.43
59194;BME280;44967;48.598;15.650;2023-04-05T10:07:12;98665.84;;;6.47;34.77
59194;BME280;44967;48.598;15.650;2023-04-05T10:09:39;98667.72;;;6.30;35.29
59194;BME280;44967;48.598;15.650;2023-04-05T10:12:09;98666.00;;;6.21;35.60
59194;BME280;44967;48.598;15.650;2023-04-05T10:14:36;98663.16;;;6.51;36.39
59194;BME280;44967;48.598;15.650;2023-04-05T10:17:08;98664.03;;;6.50;35.45
59194;BME280;44967;48.598;15.650;2023-04-05T10:19:53;98665.69;;;6.60;36.00
59194;BME280;44967;48.598;15.650;2023-04-05T10:25:22;98654.59;;;6.30;35.87
59194;BME280;44967;48.598;15.650;2023-04-05T10:30:34;98653.19;;;5.69;35.59
59194;BME280;44967;48.598;15.650;2023-04-05T10:33:17;98664.63;;;5.53;36.42
59194;BME280;44967;48.598;15.650;2023-04-05T10:41:48;98647.91;;;5.80;36.82
59194;BME280;44967;48.598;15.650;2023-04-05T10:44:17;98651.44;;;5.76;36.87
59194;BME280;44967;48.598;15.650;2023-04-05T10:46:44;98646.09;;;5.93;37.83
59194;BME280;44967;48.598;15.650;2023-04-05T10:49:19;98648.72;;;5.93;36.68
59194;BME280;44967;48.598;15.650;2023-04-05T10:51:47;98648.53;;;6.23;37.18
59194;BME280;44967;48.598;15.650;2023-04-05T10:54:13;98639.50;;;6.54;37.14
59194;BME280;44967;48.598;15.650;2023-04-05T10:56:42;98646.53;;;6.49;35.70
59194;BME280;44967;48.598;15.650;2023-04-05T10:59:09;98633.31;;;6.60;36.26
59194;BME280;44967;48.598;15.650;2023-04-05T11:01:36;98634.34;;;6.45;35.04
59194;BME280;44967;48.598;15.650;2023-04-05T11:04:15;98631.72;;;6.45;34.37
59194;BME280;44967;48.598;15.650;2023-04-05T11:06:41;98635.22;;;6.46;34.66
59194;BME280;44967;48.598;15.650;2023-04-05T11:09:12;98636.56;;;6.85;36.27
59194;BME280;44967;48.598;15.650;2023-04-05T11:11:49;98641.06;;;6.72;34.77
59194;BME280;44967;48.598;15.650;2023-04-05T11:14:35;98632.03;;;6.07;34.92
59194;BME280;44967;48.598;15.650;2023-04-05T11:17:01;98627.50;;;6.26;34.51
59194;BME280;44967;48.598;15.650;2023-04-05T11:22:11;98625.31;;;7.50;32.75
59194;BME280;44967;48.598;15.650;2023-04-05T11:24:59;98625.28;;;7.51;33.95
59194;BME280;44967;48.598;15.650;2023-04-05T11:27:34;98617.53;;;7.39;33.07
59194;BME280;44967;48.598;15.650;2023-04-05T11:30:06;98619.84;;;6.93;32.44
59194;BME280;44967;48.598;15.650;2023-04-05T11:32:39;98622.47;;;6.95;32.48
59194;BME280;44967;48.598;15.650;2023-04-05T11:35:16;98613.44;;;6.33;33.27
59194;BME280;44967;48.598;15.650;2023-04-05T11:38:20;98623.69;;;6.62;33.63
59194;BME280;44967;48.598;15.650;2023-04-05T11:40:46;98614.06;;;6.61;33.82
59194;BME280;44967;48.598;15.650;2023-04-05T11:43:12;98607.97;;;6.57;34.96
59194;BME280;44967;48.598;15.650;2023-04-05T11:45:39;98615.16;;;6.37;33.60
59194;BME280;44967;48.598;15.650;2023-04-05T11:48:12;98601.75;;;6.68;32.64
59194;BME280;44967;48.598;15.650;2023-04-05T11:50:39;98598.81;;;6.96;33.06
59194;BME280;44967;48.598;15.650;2023-04-05T11:53:14;98590.56;;;7.27;35.03
59194;BME280;44967;48.598;15.650;2023-04-05T11:55:42;98595.38;;;7.60;33.04
59194;BME280;44967;48.598;15.650;2023-04-05T11:58:18;98600.56;;;7.63;31.31
59194;BME280;44967;48.598;15.650;2023-04-05T12:00:56;98596.44;;;6.72;31.59
59194;BME280;44967;48.598;15.650;2023-04-05T12:03:23;98609.31;;;6.98;31.64
59194;BME280;44967;48.598;15.650;2023-04-05T12:05:53;98590.63;;;7.22;31.09
59194;BME280;44967;48.598;15.650;2023-04-05T12:08:21;98602.22;;;7.72;33.20
59194;BME280;44967;48.598;15.650;2023-04-05T12:10:54;98597.88;;;7.68;31.69
59194;BME280;44967;48.598;15.650;2023-04-05T12:13:31;98595.56;;;7.46;30.72
59194;BME280;44967;48.598;15.650;2023-04-05T12:16:02;98591.84;;;7.61;32.93
59194;BME280;44967;48.598;15.650;2023-04-05T12:18:32;98590.97;;;6.92;32.15
59194;BME280;44967;48.598;15.650;2023-04-05T12:20:59;98590.03;;;6.96;32.59
59194;BME280;44967;48.598;15.650;2023-04-05T12:23:25;98599.59;;;7.04;32.21
59194;BME280;44967;48.598;15.650;2023-04-05T12:25:53;98599.63;;;7.01;32.52
59194;BME280;44967;48.598;15.650;2023-04-05T12:28:20;98599.53;;;7.10;32.64
59194;BME280;44967;48.598;15.650;2023-04-05T12:33:14;98587.94;;;7.27;31.00
59194;BME280;44967;48.598;15.650;2023-04-05T12:35:40;98589.03;;;7.10;30.76
59194;BME280;44967;48.598;15.650;2023-04-05T12:38:06;98587.41;;;7.65;31.74
59194;BME280;44967;48.598;15.650;2023-04-05T12:40:34;98587.47;;;7.60;31.92
59194;BME280;44967;48.598;15.650;2023-04-05T12:43:05;98569.66;;;7.18;31.64
59194;BME280;44967;48.598;15.650;2023-04-05T12:45:31;98571.97;;;7.40;31.10
59194;BME280;44967;48.598;15.650;2023-04-05T12:48:08;98574.59;;;7.40;31.19
59194;BME280;44967;48.598;15.650;2023-04-05T12:50:35;98572.75;;;7.47;31.50
59194;BME280;44967;48.598;15.650;2023-04-05T12:53:05;98571.63;;;7.66;32.52
59194;BME280;44967;48.598;15.650;2023-04-05T12:55:31;98567.06;;;7.77;32.86
59194;BME280;44967;48.598;15.650;2023-04-05T12:58:00;98571.53;;;7.71;32.58
59194;BME280;44967;48.598;15.650;2023-04-05T13:00:28;98571.06;;;7.43;32.20
59194;BME280;44967;48.598;15.650;2023-04-05T13:02:56;98571.72;;;7.58;32.27
59194;BME280;44967;48.598;15.650;2023-04-05T13:05:23;98570.44;;;7.26;31.77
59194;BME280;44967;48.598;15.650;2023-04-05T13:07:49;98568.81;;;7.14;32.50
59194;BME280;44967;48.598;15.650;2023-04-05T13:10:16;98559.97;;;7.23;32.77
59194;BME280;44967;48.598;15.650;2023-04-05T13:12:42;98561.81;;;7.13;31.60
59194;BME280;44967;48.598;15.650;2023-04-05T13:15:08;98557.53;;;7.04;31.74
59194;BME280;44967;48.598;15.650;2023-04-05T13:17:34;98561.66;;;7.25;32.13
59194;BME280;44967;48.598;15.650;2023-04-05T13:19:59;98560.16;;;7.70;32.52
59194;BME280;44967;48.598;15.650;2023-04-05T13:22:25;98555.50;;;7.89;31.60
59194;BME280;44967;48.598;15.650;2023-04-05T13:24:51;98552.97;;;7.81;30.72
59194;BME280;44967;48.598;15.650;2023-04-05T13:27:18;98562.00;;;8.19;32.43